Shenandoah Junction, Pennsylvania
Current Conditions -  °F | °C
As of 3:15 AM on Friday 24 Oct 2014 (Local Time) from KHZL Reporting Station
Overcast Overcast  
Wind Chill: 43°   Ceiling: 1300
Heat Index: 48°   Visibility: 10mi
Dew Point: 45°   Wind: 14mph
Humidity: 87%   Direction: 320°NW
Pressure: 29.89"   Gusts: 17mph
Location:  40.8208°N, 76.1672°W
Report Text: KHZL 240715Z AUTO 32012G15KT 10SM OVC013 09/07 A2989 RMK AO2
Loading
Personal Weather Stations






























Interactive Weather Map
Tropical Storm Tracking
New forecast layout! Learn more

10-Day Weather Forecast

Advertisements
Track Severe Weather on mobile